createdAt,value
2022-12-15T00:01:58.695Z,11.35
2022-12-15T00:04:43.591Z,11.98
2022-12-15T00:07:28.439Z,11.85
2022-12-15T00:10:13.279Z,11.13
2022-12-15T00:12:58.091Z,10.88
2022-12-15T00:15:43.184Z,12.18
2022-12-15T00:18:29.345Z,10.93
2022-12-15T00:21:18.250Z,13.05
2022-12-15T00:24:03.451Z,11.40
2022-12-15T00:26:48.843Z,13.88
2022-12-15T00:29:33.554Z,10.93
2022-12-15T00:32:18.567Z,11.95
2022-12-15T00:35:03.811Z,12.05
2022-12-15T00:37:48.711Z,11.13
2022-12-15T00:40:15.400Z,11.52
2022-12-15T00:42:42.032Z,11.15
2022-12-15T00:45:09.409Z,11.82
2022-12-15T00:47:36.471Z,12.45
2022-12-15T00:50:21.872Z,11.23
2022-12-15T00:53:07.028Z,11.55
2022-12-15T00:55:52.132Z,11.18
2022-12-15T00:58:37.271Z,11.50
2022-12-15T01:01:26.815Z,11.68
2022-12-15T01:04:12.612Z,11.18
2022-12-15T01:06:57.906Z,12.80
2022-12-15T01:09:42.931Z,11.38
2022-12-15T01:12:28.119Z,11.32
2022-12-15T01:15:13.026Z,11.73
2022-12-15T01:17:57.892Z,11.73
2022-12-15T01:20:24.434Z,11.52
2022-12-15T01:22:53.332Z,10.52
2022-12-15T01:25:25.016Z,9.77
2022-12-15T01:27:52.098Z,12.90
2022-12-15T01:30:21.658Z,17.95
2022-12-15T01:32:48.770Z,16.80
2022-12-15T01:35:15.932Z,14.32
2022-12-15T01:37:42.539Z,12.47
2022-12-15T01:40:32.213Z,11.90
2022-12-15T01:42:58.891Z,14.32
2022-12-15T01:45:28.500Z,20.15
2022-12-15T01:47:57.868Z,19.25
2022-12-15T01:50:26.194Z,16.83
2022-12-15T01:52:54.145Z,13.63
2022-12-15T01:55:22.672Z,16.42
2022-12-15T01:57:51.434Z,16.27
2022-12-15T02:00:18.056Z,14.50
2022-12-15T02:02:44.849Z,16.42
2022-12-15T02:05:11.639Z,13.52
2022-12-15T02:07:38.204Z,12.75
2022-12-15T02:10:07.405Z,13.98
2022-12-15T02:13:03.472Z,11.57
2022-12-15T02:15:39.343Z,11.57
2022-12-15T02:18:43.393Z,11.05
2022-12-15T02:21:30.929Z,11.55
2022-12-15T02:24:16.191Z,10.32
2022-12-15T02:26:57.500Z,11.85
2022-12-15T02:30:01.006Z,11.88
2022-12-15T02:32:37.338Z,11.85
2022-12-15T02:35:09.731Z,10.82
2022-12-15T02:37:38.351Z,11.82
2022-12-15T02:40:06.750Z,10.52
2022-12-15T02:42:36.030Z,11.57
2022-12-15T02:45:12.530Z,10.93
2022-12-15T02:47:46.347Z,10.95
2022-12-15T02:50:31.205Z,10.45
2022-12-15T02:53:12.927Z,10.45
2022-12-15T02:55:50.434Z,10.88
2022-12-15T02:58:44.918Z,11.23
2022-12-15T03:01:31.526Z,10.65
2022-12-15T03:03:59.983Z,11.13
2022-12-15T03:06:27.023Z,11.00
2022-12-15T03:08:53.611Z,11.32
2022-12-15T03:11:20.154Z,10.35
2022-12-15T03:13:46.789Z,11.20
2022-12-15T03:16:16.796Z,9.45
2022-12-15T03:18:43.566Z,11.38
2022-12-15T03:21:10.155Z,11.13
2022-12-15T03:23:36.721Z,11.45
2022-12-15T03:26:03.368Z,10.18
2022-12-15T03:28:29.912Z,11.82
2022-12-15T03:30:56.544Z,10.52
2022-12-15T03:33:23.103Z,10.50
2022-12-15T03:35:51.031Z,11.45
2022-12-15T03:38:18.596Z,9.90
2022-12-15T03:40:45.279Z,9.93
2022-12-15T03:43:11.820Z,10.88
2022-12-15T03:45:38.440Z,10.70
2022-12-15T03:48:05.132Z,10.38
2022-12-15T03:50:31.687Z,11.23
2022-12-15T03:53:00.645Z,10.27
2022-12-15T03:55:31.138Z,10.35
2022-12-15T03:57:59.292Z,11.10
2022-12-15T04:00:26.780Z,10.60
2022-12-15T04:02:53.910Z,10.63
2022-12-15T04:05:26.331Z,10.70
2022-12-15T04:07:57.719Z,11.68
2022-12-15T04:10:30.209Z,11.23
2022-12-15T04:13:01.827Z,10.35
2022-12-15T04:15:28.461Z,10.25
2022-12-15T04:17:55.391Z,11.30
2022-12-15T04:20:22.735Z,11.57
2022-12-15T04:22:50.584Z,11.55
2022-12-15T04:25:38.940Z,11.55
2022-12-15T04:28:24.438Z,11.60
2022-12-15T04:31:12.757Z,10.23
2022-12-15T04:34:00.186Z,11.88
2022-12-15T04:36:46.004Z,10.88
2022-12-15T04:39:31.155Z,10.75
2022-12-15T04:42:17.857Z,10.60
2022-12-15T04:45:03.004Z,11.35
2022-12-15T04:47:48.094Z,11.30
2022-12-15T04:50:33.006Z,11.75
2022-12-15T04:53:34.091Z,11.88
2022-12-15T04:56:20.230Z,13.23
2022-12-15T04:59:05.911Z,13.95
2022-12-15T05:01:52.700Z,13.63
2022-12-15T05:04:38.012Z,12.80
2022-12-15T05:07:23.259Z,11.68
2022-12-15T05:10:14.390Z,11.02
2022-12-15T05:13:00.218Z,12.20
2022-12-15T05:15:45.261Z,12.90
2022-12-15T05:18:30.442Z,13.77
2022-12-15T05:21:17.200Z,12.93
2022-12-15T05:24:02.388Z,11.68
2022-12-15T05:26:52.396Z,12.77
2022-12-15T05:29:38.309Z,12.05
2022-12-15T05:32:04.922Z,12.88
2022-12-15T05:34:33.330Z,12.70
2022-12-15T05:37:01.818Z,11.77
2022-12-15T05:39:28.592Z,11.23
2022-12-15T05:41:56.314Z,12.52
2022-12-15T05:44:23.779Z,12.50
2022-12-15T05:46:50.463Z,12.32
2022-12-15T05:49:18.182Z,12.20
2022-12-15T05:51:46.510Z,12.50
2022-12-15T05:54:17.681Z,12.60
2022-12-15T05:56:45.030Z,12.63
2022-12-15T05:59:11.605Z,12.43
2022-12-15T06:01:38.409Z,12.68
2022-12-15T06:04:05.260Z,12.60
2022-12-15T06:06:31.963Z,12.05
2022-12-15T06:08:59.588Z,11.90
2022-12-15T06:11:26.302Z,12.27
2022-12-15T06:13:55.401Z,11.98
2022-12-15T06:16:24.292Z,11.20
2022-12-15T06:18:54.223Z,11.20
2022-12-15T06:21:26.586Z,10.93
2022-12-15T06:23:53.355Z,11.68
2022-12-15T06:26:23.105Z,11.18
2022-12-15T06:28:50.591Z,12.35
2022-12-15T06:31:19.716Z,11.07
2022-12-15T06:33:46.339Z,11.00
2022-12-15T06:36:14.716Z,11.20
2022-12-15T06:38:43.648Z,12.63
2022-12-15T06:41:15.515Z,11.35
2022-12-15T06:43:42.321Z,12.18
2022-12-15T06:46:09.505Z,12.68
2022-12-15T06:48:36.259Z,12.15
2022-12-15T06:51:10.788Z,11.18
2022-12-15T06:53:42.758Z,13.80
2022-12-15T06:56:30.637Z,13.68
2022-12-15T06:59:00.381Z,11.90
2022-12-15T07:01:27.829Z,12.70
2022-12-15T07:03:55.345Z,12.23
2022-12-15T07:06:22.164Z,11.63
2022-12-15T07:08:54.321Z,11.98
2022-12-15T07:11:22.045Z,12.43
2022-12-15T07:13:50.343Z,11.15
2022-12-15T07:16:16.931Z,12.43
2022-12-15T07:18:43.630Z,12.48
2022-12-15T07:21:10.976Z,12.93
2022-12-15T07:23:55.688Z,12.30
2022-12-15T07:26:23.818Z,13.63
2022-12-15T07:28:50.558Z,12.10
2022-12-15T07:31:17.995Z,12.98
2022-12-15T07:33:44.899Z,13.63
2022-12-15T07:36:11.575Z,13.73
2022-12-15T07:38:38.310Z,14.40
2022-12-15T07:41:07.262Z,13.57
2022-12-15T07:43:35.129Z,14.82
2022-12-15T07:46:02.662Z,12.45
2022-12-15T07:48:29.442Z,13.63
2022-12-15T07:51:07.323Z,13.45
2022-12-15T07:53:35.346Z,14.43
2022-12-15T07:56:08.595Z,13.73
2022-12-15T07:58:36.306Z,13.07
2022-12-15T08:01:05.239Z,13.32
2022-12-15T08:03:32.457Z,13.52
2022-12-15T08:06:04.514Z,12.13
2022-12-15T08:08:32.511Z,14.25
2022-12-15T08:14:00.906Z,12.45
2022-12-15T08:16:12.784Z,13.82
2022-12-15T08:18:39.624Z,15.23
2022-12-15T08:21:09.904Z,13.20
2022-12-15T08:23:37.785Z,14.65
2022-12-15T08:26:06.905Z,14.48
2022-12-15T08:28:34.711Z,14.57
2022-12-15T08:31:05.767Z,14.10
2022-12-15T08:33:33.381Z,14.38
2022-12-15T08:36:03.134Z,13.43
2022-12-15T08:38:31.005Z,14.85
2022-12-15T08:40:57.875Z,15.20
2022-12-15T08:43:24.577Z,13.73
2022-12-15T08:45:51.150Z,13.80
2022-12-15T08:48:17.769Z,13.88
2022-12-15T08:50:45.664Z,14.63
2022-12-15T08:53:41.418Z,13.38
2022-12-15T08:56:07.216Z,14.20
2022-12-15T08:58:34.310Z,14.05
2022-12-15T09:01:06.638Z,14.35
2022-12-15T09:03:35.183Z,14.23
2022-12-15T09:06:06.799Z,14.20
2022-12-15T09:08:34.442Z,15.20
2022-12-15T09:11:01.790Z,15.07
2022-12-15T09:13:29.016Z,15.17
2022-12-15T09:16:09.778Z,15.10
2022-12-15T09:18:37.199Z,14.68
2022-12-15T09:21:05.984Z,14.93
2022-12-15T09:23:33.266Z,14.88
2022-12-15T09:26:08.185Z,16.40
2022-12-15T09:28:34.983Z,15.40
2022-12-15T09:31:09.789Z,15.35
2022-12-15T09:33:36.767Z,15.73
2022-12-15T09:36:04.386Z,16.17
2022-12-15T09:38:31.436Z,15.68
2022-12-15T09:40:57.972Z,15.63
2022-12-15T09:43:35.909Z,16.25
2022-12-15T09:46:12.264Z,16.75
2022-12-15T09:48:40.650Z,16.25
2022-12-15T09:51:10.699Z,15.80
2022-12-15T09:56:28.996Z,17.02
2022-12-15T09:59:03.791Z,16.05
2022-12-15T10:01:58.028Z,17.30
2022-12-15T10:04:34.065Z,16.90
2022-12-15T10:07:04.903Z,16.02
2022-12-15T10:09:31.587Z,17.48
2022-12-15T10:12:12.552Z,16.08
2022-12-15T10:15:06.603Z,16.83
2022-12-15T10:17:42.271Z,16.25
2022-12-15T10:20:18.820Z,17.08
2022-12-15T10:22:46.020Z,16.98
2022-12-15T10:25:27.448Z,17.35
2022-12-15T10:28:05.558Z,16.70
2022-12-15T10:30:32.535Z,17.55
2022-12-15T10:33:19.988Z,16.33
2022-12-15T10:35:47.127Z,16.45
2022-12-15T10:38:40.375Z,16.20
2022-12-15T10:41:12.584Z,17.17
2022-12-15T10:43:44.736Z,16.80
2022-12-15T10:46:18.540Z,16.45
2022-12-15T10:48:48.418Z,17.23
2022-12-15T10:51:31.564Z,17.13
2022-12-15T10:54:10.216Z,17.30
2022-12-15T10:56:58.908Z,18.15
2022-12-15T10:59:25.482Z,17.73
2022-12-15T11:01:52.490Z,17.33
2022-12-15T11:04:26.378Z,18.73
2022-12-15T11:06:57.596Z,17.50
2022-12-15T11:09:35.798Z,15.88
2022-12-15T11:14:49.892Z,17.80
2022-12-15T11:17:22.191Z,16.95
2022-12-15T11:20:05.031Z,16.63
2022-12-15T11:22:37.785Z,15.65
2022-12-15T11:25:22.264Z,16.45
2022-12-15T11:27:50.507Z,15.60
2022-12-15T11:30:20.499Z,16.60
2022-12-15T11:33:05.238Z,16.98
2022-12-15T11:36:13.406Z,13.80
2022-12-15T11:38:52.519Z,16.17
2022-12-15T11:41:28.006Z,16.67
2022-12-15T11:44:27.644Z,16.58
2022-12-15T11:47:31.653Z,16.65
2022-12-15T11:50:22.355Z,16.70
2022-12-15T11:53:10.318Z,17.17
2022-12-15T11:56:16.107Z,15.68
2022-12-15T11:58:54.838Z,14.82
2022-12-15T12:01:53.971Z,16.02
2022-12-15T12:04:23.566Z,15.40
2022-12-15T12:06:50.071Z,17.15
2022-12-15T12:09:29.572Z,15.95
2022-12-15T12:12:02.237Z,16.17
2022-12-15T12:14:56.034Z,14.85
2022-12-15T12:17:48.076Z,16.13
2022-12-15T12:20:18.390Z,15.95
2022-12-15T12:23:16.143Z,15.85
2022-12-15T12:26:03.472Z,15.02
2022-12-15T12:28:41.208Z,14.23
2022-12-15T12:31:25.830Z,15.55
2022-12-15T12:33:55.648Z,14.75
2022-12-15T12:36:22.411Z,13.77
2022-12-15T12:38:53.034Z,15.48
2022-12-15T12:41:26.068Z,14.40
2022-12-15T12:43:58.848Z,15.05
2022-12-15T12:46:34.492Z,14.73
2022-12-15T12:49:07.471Z,14.45
2022-12-15T12:51:35.306Z,15.52
2022-12-15T12:54:02.298Z,15.52
2022-12-15T12:56:44.356Z,14.38
2022-12-15T12:59:30.699Z,13.75
2022-12-15T13:02:15.715Z,14.23
2022-12-15T13:04:47.417Z,14.32
2022-12-15T13:07:32.723Z,14.13
2022-12-15T13:10:17.254Z,13.88
2022-12-15T13:12:54.332Z,13.52
2022-12-15T13:15:27.343Z,14.77
2022-12-15T13:18:07.751Z,14.07
2022-12-15T13:20:36.866Z,14.10
2022-12-15T13:23:21.870Z,12.75
2022-12-15T13:25:57.179Z,14.63
2022-12-15T13:28:50.480Z,13.45
2022-12-15T13:31:17.461Z,12.55
2022-12-15T13:33:45.064Z,12.63
2022-12-15T13:36:12.193Z,13.45
2022-12-15T13:38:57.116Z,13.40
2022-12-15T13:41:24.557Z,14.00
2022-12-15T13:43:52.235Z,13.53
2022-12-15T13:46:23.877Z,12.73
2022-12-15T13:49:02.176Z,13.45
2022-12-15T13:54:15.368Z,11.77
2022-12-15T13:56:47.880Z,12.85
2022-12-15T13:59:40.848Z,11.95
2022-12-15T14:02:28.222Z,12.40
2022-12-15T14:05:07.128Z,13.03
2022-12-15T14:07:34.956Z,12.55
2022-12-15T14:10:01.823Z,11.65
2022-12-15T14:12:29.190Z,13.10
2022-12-15T14:14:56.132Z,11.98
2022-12-15T14:17:22.734Z,11.63
2022-12-15T14:19:51.020Z,12.82
2022-12-15T14:25:01.521Z,11.52
2022-12-15T14:27:30.614Z,12.38
2022-12-15T14:30:19.939Z,12.60
2022-12-15T14:32:49.738Z,12.30
2022-12-15T14:35:39.825Z,11.60
2022-12-15T14:38:11.582Z,11.77
2022-12-15T14:40:40.019Z,12.25
2022-12-15T14:45:33.926Z,12.20
2022-12-15T14:48:39.624Z,11.65
2022-12-15T14:50:51.161Z,11.70
2022-12-15T14:53:18.623Z,11.80
2022-12-15T14:55:45.246Z,11.60
2022-12-15T14:58:32.527Z,11.82
2022-12-15T15:01:00.593Z,11.63
2022-12-15T15:03:39.049Z,12.32
2022-12-15T15:06:07.496Z,12.80
2022-12-15T15:13:40.176Z,11.63
2022-12-15T15:16:08.401Z,11.48
2022-12-15T15:18:35.293Z,12.32
2022-12-15T15:21:04.691Z,10.65
2022-12-15T15:23:31.842Z,13.07
2022-12-15T15:26:09.739Z,11.18
2022-12-15T15:28:41.459Z,12.35
2022-12-15T15:31:40.767Z,11.88
2022-12-15T15:34:08.767Z,11.48
2022-12-15T15:36:39.169Z,12.18
2022-12-15T15:39:15.833Z,12.27
2022-12-15T15:41:42.631Z,12.63
2022-12-15T15:44:14.764Z,11.38
2022-12-15T15:46:48.623Z,12.93
2022-12-15T15:49:18.758Z,13.10
2022-12-15T15:51:45.512Z,13.73
2022-12-15T15:54:15.403Z,13.82
2022-12-15T15:56:42.239Z,14.10
2022-12-15T15:59:14.075Z,13.15
2022-12-15T16:01:40.958Z,15.50
2022-12-15T16:04:07.754Z,14.55
2022-12-15T16:06:34.492Z,12.68
2022-12-15T16:09:01.107Z,12.65
2022-12-15T16:11:30.747Z,15.30
2022-12-15T16:13:57.719Z,14.07
2022-12-15T16:16:26.642Z,14.10
2022-12-15T16:18:53.359Z,15.25
2022-12-15T16:21:20.079Z,15.20
2022-12-15T16:23:47.651Z,14.10
2022-12-15T16:26:16.245Z,14.93
2022-12-15T16:28:43.004Z,12.60
2022-12-15T16:31:15.322Z,12.75
2022-12-15T16:33:42.148Z,14.23
2022-12-15T16:36:13.507Z,14.23
2022-12-15T16:38:41.096Z,13.70
2022-12-15T16:41:13.130Z,13.50
2022-12-15T16:43:44.468Z,13.52
2022-12-15T16:46:15.517Z,15.40
2022-12-15T16:48:42.842Z,15.55
2022-12-15T16:51:13.786Z,13.73
2022-12-15T16:53:41.706Z,13.30
2022-12-15T16:56:08.834Z,13.73
2022-12-15T16:58:36.188Z,13.32
2022-12-15T17:01:03.928Z,13.07
2022-12-15T17:03:30.898Z,14.45
2022-12-15T17:06:00.894Z,15.13
2022-12-15T17:08:31.481Z,14.85
2022-12-15T17:10:58.444Z,14.85
2022-12-15T17:13:39.153Z,14.55
2022-12-15T17:16:11.310Z,14.13
2022-12-15T17:18:38.138Z,14.57
2022-12-15T17:21:08.287Z,13.82
2022-12-15T17:23:35.335Z,14.35
2022-12-15T17:26:22.772Z,15.40
2022-12-15T17:28:49.203Z,15.75
2022-12-15T17:31:21.170Z,15.95
2022-12-15T17:33:48.170Z,16.10
2022-12-15T17:36:23.845Z,13.63
2022-12-15T17:38:58.001Z,15.27
2022-12-15T17:41:50.671Z,17.30
2022-12-15T17:44:36.738Z,19.13
2022-12-15T17:47:06.413Z,18.02
2022-12-15T17:49:36.364Z,16.55
2022-12-15T17:52:06.751Z,15.02
2022-12-15T17:54:33.852Z,14.50
2022-12-15T17:57:00.417Z,15.40
2022-12-15T17:59:27.024Z,16.00
2022-12-15T18:01:57.066Z,17.27
2022-12-15T18:04:24.036Z,17.17
2022-12-15T18:06:52.005Z,17.55
2022-12-15T18:09:20.099Z,19.05
2022-12-15T18:11:46.990Z,17.70
2022-12-15T18:14:15.807Z,17.83
2022-12-15T18:16:42.894Z,18.27
2022-12-15T18:19:09.703Z,17.65
2022-12-15T18:21:37.016Z,18.17
2022-12-15T18:24:10.364Z,17.13
2022-12-15T18:26:38.074Z,19.13
2022-12-15T18:29:17.607Z,17.33
2022-12-15T18:31:48.695Z,17.95
2022-12-15T18:34:21.098Z,18.63
2022-12-15T18:36:47.812Z,18.65
2022-12-15T18:39:23.442Z,17.70
2022-12-15T18:41:50.767Z,18.42
2022-12-15T18:44:28.573Z,18.10
2022-12-15T18:46:55.537Z,17.10
2022-12-15T18:49:23.393Z,17.65
2022-12-15T18:51:50.558Z,17.45
2022-12-15T18:54:19.246Z,17.70
2022-12-15T18:56:45.903Z,18.50
2022-12-15T18:59:15.692Z,17.35
2022-12-15T19:01:46.746Z,16.30
2022-12-15T19:04:14.113Z,29.67
2022-12-15T19:06:41.047Z,19.42
2022-12-15T19:09:19.754Z,17.55
2022-12-15T19:12:10.477Z,16.90
2022-12-15T19:14:43.115Z,17.13
2022-12-15T19:17:39.147Z,16.48
2022-12-15T19:20:30.508Z,17.40
2022-12-15T19:22:57.162Z,18.75
2022-12-15T19:25:26.823Z,22.25
2022-12-15T19:27:59.320Z,18.63
2022-12-15T19:30:28.474Z,18.23
2022-12-15T19:32:55.379Z,22.08
2022-12-15T19:35:22.023Z,18.80
2022-12-15T19:37:49.926Z,18.52
2022-12-15T19:40:22.175Z,18.75
2022-12-15T19:42:49.212Z,19.55
2022-12-15T19:45:18.664Z,18.65
2022-12-15T19:47:45.410Z,17.90
2022-12-15T19:50:36.755Z,18.33
2022-12-15T19:53:30.107Z,19.02
2022-12-15T19:55:59.234Z,20.00
2022-12-15T19:58:31.424Z,22.58
2022-12-15T20:01:02.756Z,21.25
2022-12-15T20:03:30.372Z,22.15
2022-12-15T20:05:58.555Z,23.98
2022-12-15T20:08:27.942Z,22.63
2022-12-15T20:10:55.740Z,21.45
2022-12-15T20:13:22.606Z,20.88
2022-12-15T20:15:49.398Z,21.15
2022-12-15T20:18:16.024Z,20.52
2022-12-15T20:20:45.166Z,20.17
2022-12-15T20:23:19.338Z,19.05
2022-12-15T20:25:45.992Z,18.02
2022-12-15T20:28:22.415Z,19.48
2022-12-15T20:30:49.808Z,18.50
2022-12-15T20:33:16.771Z,18.15
2022-12-15T20:35:45.740Z,17.70
2022-12-15T20:38:30.328Z,17.17
2022-12-15T20:40:57.688Z,18.00
2022-12-15T20:43:25.796Z,18.92
2022-12-15T20:46:16.183Z,15.55
2022-12-15T20:48:43.732Z,15.75
2022-12-15T20:51:19.224Z,16.27
2022-12-15T20:53:46.519Z,14.57
2022-12-15T20:56:13.232Z,15.13
2022-12-15T20:58:39.952Z,15.63
2022-12-15T21:01:21.796Z,17.23
2022-12-15T21:03:50.519Z,15.77
2022-12-15T21:06:18.995Z,15.55
2022-12-15T21:08:45.910Z,15.25
2022-12-15T21:11:19.622Z,14.50
2022-12-15T21:13:48.690Z,14.98
2022-12-15T21:16:19.839Z,15.10
2022-12-15T21:19:19.195Z,15.15
2022-12-15T21:21:39.800Z,14.88
2022-12-15T21:24:22.942Z,17.42
2022-12-15T21:26:50.561Z,14.55
2022-12-15T21:29:19.568Z,16.23
2022-12-15T21:31:46.667Z,15.82
2022-12-15T21:34:13.362Z,15.63
2022-12-15T21:36:42.283Z,15.57
2022-12-15T21:39:11.705Z,15.95
2022-12-15T21:41:41.794Z,15.20
2022-12-15T21:44:15.320Z,15.90
2022-12-15T21:46:42.286Z,15.55
2022-12-15T21:49:18.734Z,15.85
2022-12-15T21:51:47.815Z,14.93
2022-12-15T21:54:28.818Z,15.30
2022-12-15T21:56:57.136Z,14.45
2022-12-15T21:59:25.390Z,16.73
2022-12-15T22:04:21.202Z,13.90
2022-12-15T22:06:50.929Z,14.43
2022-12-15T22:09:18.622Z,14.18
2022-12-15T22:11:48.922Z,14.65
2022-12-15T22:14:24.016Z,15.25
2022-12-15T22:16:51.010Z,15.48
2022-12-15T22:19:17.584Z,15.95
2022-12-15T22:21:44.282Z,14.98
2022-12-15T22:24:11.187Z,14.43
2022-12-15T22:26:38.878Z,15.70
2022-12-15T22:29:20.804Z,14.60
2022-12-15T22:31:48.183Z,14.80
2022-12-15T22:34:17.215Z,15.77
2022-12-15T22:36:44.186Z,14.45
2022-12-15T22:39:11.282Z,14.35
2022-12-15T22:41:46.543Z,13.57
2022-12-15T22:44:34.809Z,12.88
2022-12-15T22:47:02.834Z,14.00
2022-12-15T22:49:35.704Z,14.95
2022-12-15T22:52:02.599Z,13.38
2022-12-15T22:54:31.899Z,13.00
2022-12-15T22:57:04.384Z,12.70
2022-12-15T22:59:36.260Z,12.88
2022-12-15T23:02:03.393Z,13.10
2022-12-15T23:04:31.139Z,13.73
2022-12-15T23:06:59.556Z,13.75
2022-12-15T23:09:26.202Z,13.55
2022-12-15T23:11:52.790Z,13.60
2022-12-15T23:14:44.799Z,12.98
2022-12-15T23:17:12.644Z,13.98
2022-12-15T23:19:48.234Z,13.98
2022-12-15T23:22:14.811Z,14.23
2022-12-15T23:24:41.729Z,14.20
2022-12-15T23:27:11.685Z,14.80
2022-12-15T23:29:38.355Z,15.02
2022-12-15T23:32:05.169Z,14.65
2022-12-15T23:34:31.766Z,14.40
2022-12-15T23:36:58.398Z,15.07
2022-12-15T23:39:24.947Z,14.43
2022-12-15T23:41:51.512Z,15.25
2022-12-15T23:44:18.287Z,15.43
2022-12-15T23:46:46.737Z,15.32
2022-12-15T23:49:13.430Z,15.68
2022-12-15T23:51:39.999Z,16.92
2022-12-15T23:54:06.738Z,15.63
2022-12-15T23:56:33.295Z,15.18
2022-12-15T23:58:59.896Z,14.95
